createdAt,value
2017-07-11T00:00:45.302Z,105.2
2017-07-11T00:01:45.128Z,105.1
2017-07-11T00:02:44.078Z,105.1
2017-07-11T00:03:43.670Z,105.2
2017-07-11T00:04:43.128Z,105.1
2017-07-11T00:05:42.090Z,105.1
2017-07-11T00:06:41.432Z,105
2017-07-11T00:07:40.886Z,105.2
2017-07-11T00:08:40.338Z,105.2
2017-07-11T00:09:39.303Z,105.3
2017-07-11T00:10:38.746Z,105.4
2017-07-11T00:11:38.065Z,105.4
2017-07-11T00:12:37.642Z,105.4
2017-07-11T00:13:36.839Z,105.4
2017-07-11T00:14:36.161Z,105.4
2017-07-11T00:15:35.353Z,105.4
2017-07-11T00:16:34.680Z,105.3
2017-07-11T00:17:33.882Z,105.3
2017-07-11T00:18:33.330Z,105.4
2017-07-11T00:19:32.641Z,105.2
2017-07-11T00:20:31.960Z,105.2
2017-07-11T00:21:31.469Z,105.3
2017-07-11T00:22:30.658Z,105.4
2017-07-11T00:23:29.711Z,105.4
2017-07-11T00:24:29.283Z,105.4
2017-07-11T00:25:28.724Z,105.3
2017-07-11T00:26:27.782Z,105.4
2017-07-11T00:27:27.487Z,105.5
2017-07-11T00:28:26.560Z,105.5
2017-07-11T00:29:26.010Z,105.6
2017-07-11T00:30:25.211Z,105.6
2017-07-11T00:31:24.532Z,105.6
2017-07-11T00:32:24.090Z,105.6
2017-07-11T00:33:23.284Z,105.6
2017-07-11T00:34:22.367Z,105.6
2017-07-11T00:34:52.745Z,105.6
2017-07-11T00:35:23.135Z,105.7
2017-07-11T00:35:53.383Z,105.7
2017-07-11T00:37:20.246Z,105.7
2017-07-11T00:38:19.941Z,105.8
2017-07-11T00:39:18.883Z,105.7
2017-07-11T00:40:18.583Z,105.8
2017-07-11T00:41:17.769Z,105.8
2017-07-11T00:42:16.826Z,105.8
2017-07-11T00:43:16.533Z,105.8
2017-07-11T00:44:15.605Z,105.9
2017-07-11T00:45:15.176Z,105.9
2017-07-11T00:46:14.121Z,105.8
2017-07-11T00:46:44.380Z,105.8
2017-07-11T00:47:14.640Z,105.9
2017-07-11T00:47:45.011Z,105.9
2017-07-11T00:48:15.761Z,105.9
2017-07-11T00:48:46.025Z,105.9
2017-07-11T00:49:16.786Z,106
2017-07-11T00:49:47.169Z,106
2017-07-11T00:51:11.015Z,105.9
2017-07-11T00:52:10.136Z,105.8
2017-07-11T00:53:09.819Z,105.8
2017-07-11T00:54:08.760Z,105.8
2017-07-11T00:55:08.329Z,105.8
2017-07-11T00:56:07.656Z,105.7
2017-07-11T00:57:06.972Z,105.8
2017-07-11T00:58:06.043Z,105.8
2017-07-11T01:00:04.756Z,105.9
2017-07-11T01:01:03.962Z,106
2017-07-11T01:02:03.406Z,105.9
2017-07-11T01:03:02.596Z,105.9
2017-07-11T01:04:02.418Z,105.9
2017-07-11T01:05:01.605Z,105.8
2017-07-11T01:06:00.805Z,105.8
2017-07-11T01:07:00.129Z,105.7
2017-07-11T01:07:30.765Z,105.7
2017-07-11T01:08:01.145Z,105.7
2017-07-11T01:08:58.836Z,105.7
2017-07-11T01:09:57.795Z,105.6
2017-07-11T01:10:57.494Z,105.6
2017-07-11T01:11:56.565Z,105.6
2017-07-11T01:12:56.008Z,105.6
2017-07-11T01:13:55.452Z,105.7
2017-07-11T01:14:54.387Z,105.7
2017-07-11T01:15:53.842Z,105.7
2017-07-11T01:16:53.420Z,105.7
2017-07-11T01:17:52.626Z,105.8
2017-07-11T01:18:52.014Z,105.8
2017-07-11T01:19:51.466Z,105.8
2017-07-11T01:20:50.543Z,105.8
2017-07-11T01:21:49.750Z,105.8
2017-07-11T01:22:49.188Z,105.8
2017-07-11T01:23:48.511Z,105.7
2017-07-11T01:24:47.704Z,105.8
2017-07-11T01:25:47.023Z,105.8
2017-07-11T01:26:46.563Z,105.7
2017-07-11T01:27:45.882Z,105.8
2017-07-11T01:29:44.345Z,105.6
2017-07-11T01:30:43.797Z,105.5
2017-07-11T01:31:43.173Z,105.6
2017-07-11T01:32:42.245Z,105.7
2017-07-11T01:33:41.690Z,105.7
2017-07-11T01:34:40.886Z,105.7
2017-07-11T01:35:40.452Z,105.8
2017-07-11T01:36:39.771Z,105.9
2017-07-11T01:37:39.214Z,105.9
2017-07-11T01:38:38.422Z,106
2017-07-11T01:39:37.509Z,106
2017-07-11T01:40:36.964Z,106.1
2017-07-11T01:41:36.531Z,106.1
2017-07-11T01:42:35.607Z,106.1
2017-07-11T01:43:34.804Z,106.1
2017-07-11T01:44:34.258Z,106.1
2017-07-11T01:45:33.341Z,106.2
2017-07-11T01:46:32.911Z,106.2
2017-07-11T01:47:32.237Z,106.3
2017-07-11T01:48:31.186Z,106.3
2017-07-11T01:49:30.751Z,106.3
2017-07-11T01:50:30.063Z,106.3
2017-07-11T01:51:29.372Z,106.3
2017-07-11T01:52:28.692Z,106.3
2017-07-11T01:53:27.897Z,106.3
2017-07-11T01:54:27.212Z,106.4
2017-07-11T01:55:26.669Z,106.4
2017-07-11T01:56:25.877Z,106.4
2017-07-11T01:57:25.468Z,106.4
2017-07-11T01:58:24.785Z,106.4
2017-07-11T01:59:23.968Z,106.4
2017-07-11T02:00:23.241Z,106.4
2017-07-11T02:01:22.708Z,106.4
2017-07-11T02:02:21.640Z,106.4
2017-07-11T02:03:20.970Z,106.4
2017-07-11T02:04:20.426Z,106.4
2017-07-11T02:05:19.624Z,106.4
2017-07-11T02:06:19.328Z,106.4
2017-07-11T02:07:18.275Z,106.4
2017-07-11T02:08:17.600Z,106.4
2017-07-11T02:09:16.793Z,106.4
2017-07-11T02:10:16.521Z,106.4
2017-07-11T02:11:15.589Z,106.4
2017-07-11T02:12:14.913Z,106.5
2017-07-11T02:13:14.633Z,106.4
2017-07-11T02:14:13.562Z,106.3
2017-07-11T02:14:44.190Z,106.3
2017-07-11T02:15:14.456Z,106.4
2017-07-11T02:15:45.078Z,106.4
2017-07-11T02:17:11.578Z,106.4
2017-07-11T02:18:11.024Z,106.4
2017-07-11T02:19:10.351Z,106.3
2017-07-11T02:20:09.677Z,106.3
2017-07-11T02:21:08.622Z,106.3
2017-07-11T02:22:07.949Z,106.3
2017-07-11T02:23:07.402Z,106.2
2017-07-11T02:24:06.608Z,106.2
2017-07-11T02:25:06.416Z,106.1
2017-07-11T02:26:05.359Z,106
2017-07-11T02:27:04.555Z,106
2017-07-11T02:28:03.742Z,106
2017-07-11T02:29:03.194Z,106.1
2017-07-11T02:30:02.524Z,106.1
2017-07-11T02:31:01.727Z,106.1
2017-07-11T02:32:01.411Z,106.1
2017-07-11T02:33:00.736Z,106.2
2017-07-11T02:33:59.929Z,106.2
2017-07-11T02:34:59.241Z,106.2
2017-07-11T02:35:58.437Z,106.3
2017-07-11T02:36:58.147Z,106.3
2017-07-11T02:37:56.976Z,106.3
2017-07-11T02:38:56.425Z,106.3
2017-07-11T02:39:55.751Z,106.3
2017-07-11T02:40:54.943Z,106.3
2017-07-11T02:41:54.271Z,106.3
2017-07-11T02:42:53.728Z,106.3
2017-07-11T02:43:52.800Z,106.3
2017-07-11T02:44:52.369Z,106.3
2017-07-11T02:45:51.710Z,106.2
2017-07-11T02:46:51.156Z,106.2
2017-07-11T02:47:50.466Z,106.2
2017-07-11T02:48:49.555Z,106.2
2017-07-11T02:49:48.743Z,106.3
2017-07-11T02:50:48.067Z,106.4
2017-07-11T02:51:47.517Z,106.4
2017-07-11T02:52:46.579Z,106.5
2017-07-11T02:53:46.145Z,106.5
2017-07-11T02:54:45.222Z,106.6
2017-07-11T02:55:15.854Z,106.6
2017-07-11T02:55:46.108Z,106.6
2017-07-11T02:56:16.740Z,106.6
2017-07-11T02:56:47.115Z,106.7
2017-07-11T02:57:17.747Z,106.7
2017-07-11T02:58:42.742Z,106.8
2017-07-11T02:59:42.077Z,106.8
2017-07-11T03:00:41.535Z,106.8
2017-07-11T03:01:40.474Z,106.9
2017-07-11T03:02:39.929Z,106.9
2017-07-11T03:03:39.251Z,106.9
2017-07-11T03:04:38.449Z,107
2017-07-11T03:05:37.904Z,106.9
2017-07-11T03:06:37.358Z,106.9
2017-07-11T03:07:07.608Z,106.9
2017-07-11T03:07:38.111Z,107
2017-07-11T03:08:08.486Z,107
2017-07-11T03:08:38.865Z,107
2017-07-11T03:09:08.999Z,107
2017-07-11T03:09:39.630Z,107
2017-07-11T03:10:34.681Z,107.1
2017-07-11T03:11:33.504Z,106.8
2017-07-11T03:12:32.945Z,106.7
2017-07-11T03:13:32.969Z,106.7
2017-07-11T03:14:31.522Z,106.7
2017-07-11T03:15:30.843Z,106.7
2017-07-11T03:16:30.039Z,106.7
2017-07-11T03:17:29.605Z,106.6
2017-07-11T03:18:29.058Z,106.7
2017-07-11T03:19:28.121Z,106.6
2017-07-11T03:20:27.309Z,106.7
2017-07-11T03:21:26.758Z,106.4
2017-07-11T03:22:26.079Z,106.2
2017-07-11T03:23:25.523Z,106.1
2017-07-11T03:25:24.105Z,105.9
2017-07-11T03:26:23.546Z,105.8
2017-07-11T03:27:22.793Z,105.4
2017-07-11T03:28:21.846Z,105.1
2017-07-11T03:29:21.551Z,104.9
2017-07-11T03:30:20.873Z,105
2017-07-11T03:31:20.067Z,105
2017-07-11T03:32:19.268Z,105.1
2017-07-11T03:33:18.339Z,105.3
2017-07-11T03:34:17.915Z,105.4
2017-07-11T03:35:17.229Z,105.4
2017-07-11T03:36:16.321Z,105.3
2017-07-11T03:37:15.867Z,104.9
2017-07-11T03:38:15.433Z,104.9
2017-07-11T03:39:14.764Z,105.1
2017-07-11T03:40:13.974Z,105.3
2017-07-11T03:42:12.676Z,105.5
2017-07-11T03:43:11.641Z,105.3
2017-07-11T03:44:10.968Z,105.2
2017-07-11T03:45:10.427Z,105.2
2017-07-11T03:46:09.752Z,105.2
2017-07-11T03:47:09.206Z,105.3
2017-07-11T03:48:08.148Z,105.4
2017-07-11T03:49:07.720Z,105.6
2017-07-11T03:50:07.037Z,105.7
2017-07-11T03:51:06.495Z,105.8
2017-07-11T03:52:05.692Z,105.8
2017-07-11T03:53:04.770Z,105.8
2017-07-11T03:54:04.080Z,105.7
2017-07-11T03:55:03.403Z,105.8
2017-07-11T03:56:02.978Z,105.9
2017-07-11T03:57:02.296Z,106
2017-07-11T03:58:01.773Z,106
2017-07-11T03:59:00.829Z,106
2017-07-11T04:00:00.015Z,105.9
2017-07-11T04:00:59.387Z,106
2017-07-11T04:01:58.717Z,106
2017-07-11T04:02:58.041Z,106
2017-07-11T04:03:28.174Z,106
2017-07-11T04:03:58.670Z,106.1
2017-07-11T04:04:56.352Z,106
2017-07-11T04:05:56.066Z,106
2017-07-11T04:06:55.268Z,105.9
2017-07-11T04:07:54.716Z,105.8
2017-07-11T04:08:54.033Z,105.8
2017-07-11T04:09:53.126Z,105.7
2017-07-11T04:10:52.200Z,105.6
2017-07-11T04:11:51.652Z,105.7
2017-07-11T04:12:51.346Z,105.7
2017-07-11T04:13:50.297Z,105.5
2017-07-11T04:14:49.738Z,105.5
2017-07-11T04:15:49.192Z,105.5
2017-07-11T04:16:48.518Z,105.7
2017-07-11T04:17:47.959Z,105.8
2017-07-11T04:18:46.907Z,105.8
2017-07-11T04:19:46.355Z,105.8
2017-07-11T04:20:45.672Z,105.9
2017-07-11T04:21:44.884Z,105.9
2017-07-11T04:22:43.953Z,105.8
2017-07-11T04:23:43.272Z,105.4
2017-07-11T04:24:42.968Z,105.5
2017-07-11T04:25:42.415Z,105.4
2017-07-11T04:26:41.486Z,105.6
2017-07-11T04:27:40.553Z,105.7
2017-07-11T04:28:40.254Z,105.7
2017-07-11T04:29:39.462Z,105.8
2017-07-11T04:30:38.902Z,105.9
2017-07-11T04:31:37.977Z,106
2017-07-11T04:32:37.547Z,106
2017-07-11T04:33:36.731Z,106
2017-07-11T04:34:36.310Z,105.7
2017-07-11T04:35:35.261Z,105.3
2017-07-11T04:36:34.386Z,105.3
2017-07-11T04:37:33.656Z,105.4
2017-07-11T04:38:32.988Z,105.6
2017-07-11T04:39:32.443Z,105.7
2017-07-11T04:40:32.151Z,105.8
2017-07-11T04:41:31.086Z,105.8
2017-07-11T04:42:30.276Z,105.3
2017-07-11T04:43:29.589Z,105.4
2017-07-11T04:44:00.094Z,105.4
2017-07-11T04:44:30.469Z,105.5
2017-07-11T04:45:28.283Z,105.7
2017-07-11T04:46:27.598Z,105.9
2017-07-11T04:47:27.171Z,106
2017-07-11T04:48:26.618Z,106.1
2017-07-11T04:49:25.679Z,106.1
2017-07-11T04:50:25.258Z,106.2
2017-07-11T04:51:24.394Z,106.2
2017-07-11T04:52:23.714Z,106
2017-07-11T04:53:22.784Z,105.4
2017-07-11T04:54:22.359Z,104.9
2017-07-11T04:54:52.606Z,104.9
2017-07-11T04:55:22.740Z,104.9
2017-07-11T04:55:53.000Z,104.9
2017-07-11T04:56:23.375Z,105.4
2017-07-11T04:56:53.878Z,105.4
2017-07-11T04:58:19.506Z,105.7
2017-07-11T04:59:18.810Z,105.6
2017-07-11T05:00:18.262Z,105.7
2017-07-11T05:02:16.976Z,105.9
2017-07-11T05:03:16.159Z,105.8
2017-07-11T05:04:15.610Z,105.3
2017-07-11T05:05:14.430Z,104.8
2017-07-11T05:06:13.873Z,105
2017-07-11T05:07:13.203Z,105.1
2017-07-11T05:08:12.654Z,105.4
2017-07-11T05:09:11.973Z,105.6
2017-07-11T05:10:11.159Z,105.6
2017-07-11T05:11:10.554Z,105.6
2017-07-11T05:12:09.869Z,105.6
2017-07-11T05:13:09.190Z,105.6
2017-07-11T05:14:08.401Z,105.7
2017-07-11T05:15:07.718Z,106
2017-07-11T05:16:07.041Z,106.1
2017-07-11T05:17:06.363Z,106.1
2017-07-11T05:18:05.557Z,106.2
2017-07-11T05:19:04.995Z,106.4
2017-07-11T05:20:04.565Z,106.4
2017-07-11T05:21:03.641Z,106.1
2017-07-11T05:22:03.203Z,105.7
2017-07-11T05:23:02.393Z,105.9
2017-07-11T05:24:02.147Z,106
2017-07-11T05:25:00.832Z,106.1
2017-07-11T05:26:00.278Z,106.3
2017-07-11T05:26:59.602Z,106.3
2017-07-11T05:27:59.044Z,106.3
2017-07-11T05:28:58.363Z,106.4
2017-07-11T05:29:57.692Z,106.5
2017-07-11T05:30:56.654Z,106.5
2017-07-11T05:31:56.093Z,106.6
2017-07-11T05:32:55.676Z,106.6
2017-07-11T05:33:54.984Z,106.6
2017-07-11T05:34:53.926Z,106.7
2017-07-11T05:35:53.243Z,106.7
2017-07-11T05:37:52.204Z,106.9
2017-07-11T05:38:51.395Z,107
2017-07-11T05:39:50.594Z,107
2017-07-11T05:40:50.037Z,107
2017-07-11T05:41:49.236Z,107
2017-07-11T05:42:48.673Z,107.1
2017-07-11T05:43:47.996Z,107.1
2017-07-11T05:44:47.320Z,107.1
2017-07-11T05:45:46.641Z,107.1
2017-07-11T05:46:45.958Z,107.1
2017-07-11T05:47:45.278Z,106.9
2017-07-11T05:48:44.720Z,106.8
2017-07-11T05:49:44.160Z,106.4
2017-07-11T05:50:43.230Z,106.3
2017-07-11T05:51:42.221Z,106.5
2017-07-11T05:52:12.968Z,106.5
2017-07-11T05:52:43.048Z,106.6
2017-07-11T05:53:13.420Z,106.6
2017-07-11T05:53:43.677Z,106.7
2017-07-11T05:54:14.190Z,106.7
2017-07-11T05:55:39.686Z,106.6
2017-07-11T05:56:39.016Z,106.3
2017-07-11T05:57:38.339Z,105.8
2017-07-11T05:58:37.536Z,106.1
2017-07-11T05:59:37.305Z,106.3
2017-07-11T06:00:36.379Z,106.4
2017-07-11T06:01:35.693Z,106.2
2017-07-11T06:02:35.016Z,106.2
2017-07-11T06:03:34.347Z,106.2
2017-07-11T06:04:04.604Z,106.2
2017-07-11T06:04:35.367Z,106.3
2017-07-11T06:05:06.005Z,106.3
2017-07-11T06:06:32.251Z,106.4
2017-07-11T06:07:31.571Z,106.4
2017-07-11T06:08:31.147Z,106.4
2017-07-11T06:09:30.084Z,106.4
2017-07-11T06:10:29.652Z,106.5
2017-07-11T06:11:28.738Z,106.4
2017-07-11T06:12:27.929Z,106.3
2017-07-11T06:13:27.619Z,106.3
2017-07-11T06:14:26.690Z,106.3
2017-07-11T06:15:26.273Z,106.3
2017-07-11T06:16:25.215Z,106.3
2017-07-11T06:17:24.905Z,106.4
2017-07-11T06:18:24.353Z,106.3
2017-07-11T06:19:23.412Z,106.4
2017-07-11T06:20:22.991Z,106.4
2017-07-11T06:21:22.186Z,106.3
2017-07-11T06:21:52.678Z,106.3
2017-07-11T06:22:22.807Z,106.4
2017-07-11T06:22:53.187Z,106.4
2017-07-11T06:24:20.057Z,106.2
2017-07-11T06:25:19.390Z,105.9
2017-07-11T06:26:18.707Z,105.9
2017-07-11T06:27:18.151Z,106
2017-07-11T06:28:17.240Z,106
2017-07-11T06:29:16.805Z,105.3
2017-07-11T06:30:16.128Z,105.1
2017-07-11T06:31:15.183Z,104.9
2017-07-11T06:32:14.499Z,104.5
2017-07-11T06:33:14.075Z,105
2017-07-11T06:34:13.138Z,105.3
2017-07-11T06:35:12.828Z,105.5
2017-07-11T06:36:11.778Z,105.6
2017-07-11T06:37:11.337Z,105.4
2017-07-11T06:38:10.395Z,105.4
2017-07-11T06:39:10.090Z,105.6
2017-07-11T06:40:09.283Z,105.7
2017-07-11T06:41:08.480Z,105.9
2017-07-11T06:42:07.925Z,105.7
2017-07-11T06:43:07.504Z,105.7
2017-07-11T06:44:06.571Z,105.8
2017-07-11T06:44:36.945Z,105.8
2017-07-11T06:45:07.200Z,105.8
2017-07-11T06:45:37.457Z,105.8
2017-07-11T06:47:04.592Z,105.6
2017-07-11T06:48:03.922Z,105.1
2017-07-11T06:49:03.241Z,105.2
2017-07-11T06:50:02.313Z,105.1
2017-07-11T06:51:01.881Z,104.6
2017-07-11T06:52:01.075Z,104
2017-07-11T06:53:00.401Z,104.3
2017-07-11T06:53:59.729Z,104.2
2017-07-11T06:54:58.929Z,104.2
2017-07-11T06:55:58.242Z,103.8
2017-07-11T06:56:57.821Z,103.9
2017-07-11T06:57:57.402Z,103.9
2017-07-11T06:58:56.556Z,104.3
2017-07-11T06:59:55.996Z,104.1
2017-07-11T07:00:55.191Z,103.2
2017-07-11T07:01:54.502Z,103.5
2017-07-11T07:02:53.951Z,103.7
2017-07-11T07:03:53.285Z,102.6
2017-07-11T07:04:52.361Z,102.7
2017-07-11T07:05:51.685Z,102.8
2017-07-11T07:06:51.137Z,103.2
2017-07-11T07:07:50.454Z,103.8
2017-07-11T07:08:49.645Z,103.9
2017-07-11T07:09:49.012Z,104
2017-07-11T07:10:48.214Z,104.1
2017-07-11T07:11:47.547Z,103.7
2017-07-11T07:12:46.879Z,103.5
2017-07-11T07:13:46.451Z,102.5
2017-07-11T07:14:45.771Z,102.6
2017-07-11T07:15:45.107Z,102.7
2017-07-11T07:16:15.749Z,102.7
2017-07-11T07:16:45.878Z,102.6
2017-07-11T07:17:43.700Z,102.6
2017-07-11T07:18:42.894Z,102.2
2017-07-11T07:19:42.463Z,101.8
2017-07-11T07:20:41.783Z,101.9
2017-07-11T07:21:41.250Z,100.9
2017-07-11T07:22:40.570Z,100.6
2017-07-11T07:23:39.506Z,100.7
2017-07-11T07:24:39.186Z,100.7
2017-07-11T07:25:38.130Z,101.4
2017-07-11T07:26:37.837Z,101.1
2017-07-11T07:27:37.162Z,102.1
2017-07-11T07:28:36.607Z,101.5
2017-07-11T07:29:35.552Z,100.8
2017-07-11T07:30:34.884Z,100.7
2017-07-11T07:31:34.341Z,100.5
2017-07-11T07:32:33.412Z,100.8
2017-07-11T07:33:32.864Z,100.8
2017-07-11T07:34:32.316Z,100.6
2017-07-11T07:35:31.764Z,101.2
2017-07-11T07:36:30.831Z,101.7
2017-07-11T07:37:30.280Z,102
2017-07-11T07:38:29.604Z,101.7
2017-07-11T07:39:28.800Z,102.1
2017-07-11T07:40:28.112Z,102.3
2017-07-11T07:40:58.616Z,102.3
2017-07-11T07:42:27.008Z,102.3
2017-07-11T07:43:26.327Z,102.1
2017-07-11T07:44:25.523Z,102.7
2017-07-11T07:45:25.106Z,101.3
2017-07-11T07:46:24.307Z,101.1
2017-07-11T07:47:23.518Z,101.5
2017-07-11T07:48:23.083Z,101.8
2017-07-11T07:49:22.403Z,102.1
2017-07-11T07:50:21.862Z,101.9
2017-07-11T07:51:20.929Z,101.7
2017-07-11T07:52:20.633Z,101.8
2017-07-11T07:53:19.450Z,101.8
2017-07-11T07:53:49.966Z,101.8
2017-07-11T07:55:18.359Z,101.9
2017-07-11T07:56:17.673Z,101.4
2017-07-11T07:57:17.193Z,100.9
2017-07-11T07:58:16.516Z,101.4
2017-07-11T07:59:15.962Z,101.4
2017-07-11T08:00:15.411Z,100.6
2017-07-11T08:01:14.360Z,100.7
2017-07-11T08:02:13.669Z,100.3
2017-07-11T08:03:13.367Z,100.4
2017-07-11T08:04:12.680Z,99.8
2017-07-11T08:05:11.872Z,99.9
2017-07-11T08:06:11.115Z,100.1
2017-07-11T08:07:10.684Z,100
2017-07-11T08:08:09.649Z,99.8
2017-07-11T08:09:08.979Z,100.6
2017-07-11T08:10:08.554Z,100.4
2017-07-11T08:11:08.001Z,100.9
2017-07-11T08:11:38.142Z,100.9
2017-07-11T08:12:08.524Z,100.7
2017-07-11T08:12:38.659Z,100.7
2017-07-11T08:13:09.299Z,101.1
2017-07-11T08:13:39.557Z,101.1
2017-07-11T08:15:05.174Z,100
2017-07-11T08:16:04.499Z,99.3
2017-07-11T08:17:03.820Z,99.6
2017-07-11T08:18:03.015Z,100
2017-07-11T08:19:02.707Z,99.8
2017-07-11T08:20:02.020Z,99.7
2017-07-11T08:21:01.353Z,99.7
2017-07-11T08:22:00.552Z,99.6
2017-07-11T08:23:00.122Z,99.9
2017-07-11T08:23:59.303Z,100
2017-07-11T08:24:58.869Z,100.8
2017-07-11T08:25:58.182Z,100.1
2017-07-11T08:26:57.506Z,99.2
2017-07-11T08:27:56.572Z,98.9
2017-07-11T08:28:56.144Z,99.7
2017-07-11T08:29:55.720Z,99.6
2017-07-11T08:30:54.800Z,100.1
2017-07-11T08:31:54.256Z,99.9
2017-07-11T08:32:53.321Z,98.6
2017-07-11T08:33:52.895Z,98.8
2017-07-11T08:34:51.847Z,98.8
2017-07-11T08:35:22.494Z,98.8
2017-07-11T08:35:52.825Z,98.6
2017-07-11T08:38:49.676Z,96.9
2017-07-11T08:39:48.875Z,96.9
2017-07-11T08:40:48.077Z,97.1
2017-07-11T08:41:47.404Z,96.9
2017-07-11T08:42:46.748Z,97
2017-07-11T08:43:46.195Z,97
2017-07-11T08:44:45.656Z,96.5
2017-07-11T08:45:44.977Z,96.1
2017-07-11T08:46:44.419Z,97.4
2017-07-11T08:47:43.737Z,97.6
2017-07-11T08:48:42.797Z,96.1
2017-07-11T08:49:42.256Z,96.3
2017-07-11T08:50:41.958Z,96.2
2017-07-11T08:51:40.783Z,96.6
2017-07-11T08:52:40.475Z,96.3
2017-07-11T08:53:39.429Z,95.9
2017-07-11T08:54:39.132Z,96.5
2017-07-11T08:55:38.463Z,96.7
2017-07-11T08:56:38.043Z,96.5
2017-07-11T08:57:37.238Z,96
2017-07-11T08:58:36.689Z,96.5
2017-07-11T08:59:35.761Z,96.9
2017-07-11T09:00:35.070Z,97.7
2017-07-11T09:01:34.690Z,96.3
2017-07-11T09:02:33.888Z,96.5
2017-07-11T09:03:33.462Z,96
2017-07-11T09:04:32.658Z,95.6
2017-07-11T09:05:31.729Z,95.4
2017-07-11T09:06:31.060Z,95
2017-07-11T09:07:30.502Z,95.9
2017-07-11T09:08:30.083Z,95.9
2017-07-11T09:09:00.454Z,95.9
2017-07-11T09:09:31.085Z,94.6
2017-07-11T09:10:28.471Z,94.6
2017-07-11T09:11:27.926Z,95.9
2017-07-11T09:12:27.373Z,95.5
2017-07-11T09:13:26.954Z,96.1
2017-07-11T09:14:25.913Z,94.7
2017-07-11T09:15:25.610Z,94.1
2017-07-11T09:16:24.556Z,93.3
2017-07-11T09:17:24.131Z,94
2017-07-11T09:18:23.459Z,94.9
2017-07-11T09:19:23.168Z,94.7
2017-07-11T09:20:22.119Z,94.7
2017-07-11T09:20:52.502Z,94.7
2017-07-11T09:21:23.195Z,94.2
2017-07-11T09:21:53.569Z,94.2
2017-07-11T09:22:24.069Z,94.3
2017-07-11T09:22:54.816Z,94.3
2017-07-11T09:24:19.567Z,94.6
2017-07-11T09:25:19.142Z,93.6
2017-07-11T09:26:18.202Z,91.3
2017-07-11T09:27:17.898Z,92.2
2017-07-11T09:28:17.087Z,92.7
2017-07-11T09:29:16.537Z,92.8
2017-07-11T09:30:15.730Z,93.3
2017-07-11T09:31:15.427Z,92.8
2017-07-11T09:32:14.739Z,92.7
2017-07-11T09:33:13.687Z,93.2
2017-07-11T09:34:13.503Z,93.2
2017-07-11T09:35:12.445Z,91.6
2017-07-11T09:36:12.147Z,92.6
2017-07-11T09:37:11.457Z,91.4
2017-07-11T09:38:10.913Z,91.9
2017-07-11T09:39:10.050Z,90.2
2017-07-11T09:40:09.254Z,89.5
2017-07-11T09:41:08.959Z,89.8
2017-07-11T09:42:08.280Z,89.5
2017-07-11T09:43:07.745Z,90.3
2017-07-11T09:44:06.929Z,89.2
2017-07-11T09:45:06.384Z,86.6
2017-07-11T09:46:05.828Z,87
2017-07-11T09:47:04.893Z,86.3
2017-07-11T09:48:04.653Z,86.3
2017-07-11T09:49:03.670Z,87
2017-07-11T09:50:02.878Z,84.9
2017-07-11T09:51:02.454Z,84.7
2017-07-11T09:52:01.780Z,84.2
2017-07-11T09:53:01.417Z,85
2017-07-11T09:54:00.871Z,81.9
2017-07-11T09:54:59.924Z,82.7
2017-07-11T09:55:59.226Z,83.5
2017-07-11T09:56:59.257Z,82.2
2017-07-11T09:57:57.948Z,82.8
2017-07-11T09:58:57.291Z,81.7
2017-07-11T09:59:56.745Z,82.7
2017-07-11T10:00:27.146Z,82.7
2017-07-11T10:00:57.659Z,82.2
2017-07-11T10:01:28.290Z,82.2
2017-07-11T10:01:58.662Z,83.1
2017-07-11T10:02:29.414Z,83.1
2017-07-11T10:03:00.053Z,83.4
2017-07-11T10:03:30.421Z,83.4
2017-07-11T10:04:54.023Z,81.1
2017-07-11T10:05:53.212Z,80.6
2017-07-11T10:06:52.526Z,79.8
2017-07-11T10:07:51.967Z,79.7
2017-07-11T10:08:51.292Z,77.8
2017-07-11T10:09:50.365Z,79.7
2017-07-11T10:10:50.058Z,78.9
2017-07-11T10:11:49.492Z,78.9
2017-07-11T10:12:48.686Z,78.9
2017-07-11T10:13:19.117Z,78.9
2017-07-11T10:13:49.635Z,79.5
2017-07-11T10:14:20.022Z,79.5
2017-07-11T10:14:50.646Z,80.1
2017-07-11T10:15:21.030Z,80.1
2017-07-11T10:15:51.545Z,79.7
2017-07-11T10:16:22.015Z,79.7
2017-07-11T10:17:45.732Z,80.8
2017-07-11T10:18:45.308Z,77.8
2017-07-11T10:19:44.499Z,78.5
2017-07-11T10:20:43.689Z,80.8
2017-07-11T10:21:43.516Z,80.2
2017-07-11T10:22:42.341Z,80.4
2017-07-11T10:23:42.058Z,78.3
2017-07-11T10:24:41.392Z,77.8
2017-07-11T10:25:40.524Z,77.6
2017-07-11T10:26:40.470Z,77.4
2017-07-11T10:27:39.604Z,77.1
2017-07-11T10:28:38.788Z,77.1
2017-07-11T10:29:38.493Z,77.6
2017-07-11T10:30:37.955Z,75.6
2017-07-11T10:31:37.290Z,76.5
2017-07-11T10:33:36.015Z,76.3
2017-07-11T10:34:35.472Z,76.2
2017-07-11T10:35:34.921Z,73.8
2017-07-11T10:36:34.248Z,73.5
2017-07-11T10:37:33.688Z,73.9
2017-07-11T10:39:32.393Z,74.4
2017-07-11T10:40:31.829Z,74.8
2017-07-11T10:41:31.269Z,75.1
2017-07-11T10:42:30.708Z,73.5
2017-07-11T10:43:30.023Z,73.1
2017-07-11T10:44:29.274Z,75.3
2017-07-11T10:45:28.479Z,75.7
2017-07-11T10:46:28.172Z,76.3
2017-07-11T10:47:27.485Z,74.3
2017-07-11T10:48:26.853Z,73.9
2017-07-11T10:49:26.296Z,74.8
2017-07-11T10:50:25.753Z,73.2
2017-07-11T10:51:25.079Z,73.5
2017-07-11T10:52:24.394Z,72.2
2017-07-11T10:53:23.719Z,71.9
2017-07-11T10:54:23.038Z,72.4
2017-07-11T10:55:22.603Z,72.9
2017-07-11T10:56:22.169Z,73
2017-07-11T10:57:21.485Z,72.1
2017-07-11T10:58:20.806Z,72.4
2017-07-11T10:59:20.132Z,71.8
2017-07-11T11:00:19.582Z,71.8
2017-07-11T11:01:19.039Z,71.6
2017-07-11T11:02:18.481Z,71.5
2017-07-11T11:03:17.682Z,70.9
2017-07-11T11:04:17.626Z,71.9
2017-07-11T11:05:16.827Z,70.5
2017-07-11T11:06:16.044Z,70.7
2017-07-11T11:07:15.733Z,70.4
2017-07-11T11:08:14.813Z,70.4
2017-07-11T11:09:14.636Z,68.8
2017-07-11T11:10:13.715Z,69.7
2017-07-11T11:10:44.353Z,69.7
2017-07-11T11:11:14.991Z,69.6
2017-07-11T11:11:45.370Z,69.6
2017-07-11T11:12:15.616Z,70.2
2017-07-11T11:12:46.372Z,70.2
2017-07-11T11:13:16.499Z,69.6
2017-07-11T11:14:11.420Z,69.8
2017-07-11T11:15:10.741Z,70
2017-07-11T11:16:10.436Z,69.9
2017-07-11T11:17:10.010Z,68.3
2017-07-11T11:18:09.072Z,68
2017-07-11T11:19:08.772Z,69.5
2017-07-11T11:20:07.968Z,68.6
2017-07-11T11:21:07.414Z,70
2017-07-11T11:22:06.731Z,70.2
2017-07-11T11:23:06.165Z,69.7
2017-07-11T11:24:05.737Z,69.4
2017-07-11T11:25:05.179Z,69.5
2017-07-11T11:26:04.635Z,70
2017-07-11T11:27:04.207Z,70.3
2017-07-11T11:28:03.644Z,68
2017-07-11T11:29:02.957Z,68
2017-07-11T11:30:02.341Z,68.7
2017-07-11T11:31:02.031Z,67.7
2017-07-11T11:32:01.602Z,66.3
2017-07-11T11:33:00.420Z,66.4
2017-07-11T11:34:00.255Z,65.8
2017-07-11T11:34:59.455Z,66
2017-07-11T11:35:58.762Z,66
2017-07-11T11:36:58.210Z,67.4
2017-07-11T11:37:58.178Z,66.7
2017-07-11T11:38:57.118Z,65.3
2017-07-11T11:39:56.927Z,64.9
2017-07-11T11:40:56.127Z,63.9
2017-07-11T11:41:55.705Z,63.7
2017-07-11T11:42:55.397Z,64.4
2017-07-11T11:43:25.655Z,64.4
2017-07-11T11:43:56.157Z,63.7
2017-07-11T11:44:53.969Z,63.7
2017-07-11T11:45:53.161Z,63.2
2017-07-11T11:46:52.746Z,64.7
2017-07-11T11:47:52.447Z,64.7
2017-07-11T11:48:51.774Z,65.3
2017-07-11T11:49:51.232Z,64.2
2017-07-11T11:50:50.569Z,64.2
2017-07-11T11:51:21.078Z,64.2
2017-07-11T11:51:51.458Z,64
2017-07-11T11:52:22.211Z,64
2017-07-11T11:52:52.479Z,66
2017-07-11T11:53:49.153Z,65.6
2017-07-11T11:54:48.600Z,66.1
2017-07-11T11:55:48.099Z,65.4
2017-07-11T11:56:47.347Z,65.6
2017-07-11T11:57:46.844Z,65.9
2017-07-11T11:58:46.421Z,65.5
2017-07-11T11:59:45.865Z,66.8
2017-07-11T12:00:45.000Z,66.5
2017-07-11T12:01:44.447Z,67
2017-07-11T12:02:44.152Z,66.1
2017-07-11T12:03:43.348Z,66.4
2017-07-11T12:04:42.659Z,66.1
2017-07-11T12:05:13.419Z,66.1
2017-07-11T12:05:44.053Z,66.7
2017-07-11T12:06:14.309Z,66.7
2017-07-11T12:06:44.931Z,66.6
2017-07-11T12:08:40.491Z,65.6
2017-07-11T12:09:39.944Z,65.6
2017-07-11T12:10:39.669Z,65.9
2017-07-11T12:11:39.002Z,66
2017-07-11T12:12:38.819Z,66.1
2017-07-11T12:13:37.887Z,65.9
2017-07-11T12:14:37.585Z,66.2
2017-07-11T12:15:36.775Z,66.6
2017-07-11T12:16:36.608Z,67.4
2017-07-11T12:17:35.690Z,67
2017-07-11T12:18:35.260Z,67.4
2017-07-11T12:19:34.449Z,68.1
2017-07-11T12:20:33.898Z,67.8
2017-07-11T12:21:33.226Z,69.6
2017-07-11T12:22:33.091Z,71.9
2017-07-11T12:23:32.396Z,74.4
2017-07-11T12:24:31.587Z,78.6
2017-07-11T12:25:02.087Z,78.6
2017-07-11T12:26:30.974Z,85.5
2017-07-11T12:27:30.295Z,88.3